createdAt,value
2018-06-04T00:01:14.631Z,101711.02
2018-06-04T00:03:46.309Z,101703.47
2018-06-04T00:06:19.380Z,101700.18
2018-06-04T00:08:52.600Z,101691.21
2018-06-04T00:11:23.792Z,101695.25
2018-06-04T00:13:55.697Z,101688.69
2018-06-04T00:16:29.182Z,101687.99
2018-06-04T00:19:03.828Z,101686.49
2018-06-04T00:21:36.805Z,101690.11
2018-06-04T00:24:06.806Z,101689.69
2018-06-04T00:26:40.023Z,101684.15
2018-06-04T00:29:11.713Z,101685.69
2018-06-04T00:31:43.298Z,101689.58
2018-06-04T00:34:15.004Z,101691.47
2018-06-04T00:36:46.462Z,101691.39
2018-06-04T00:39:19.427Z,101695.36
2018-06-04T00:41:51.053Z,101696.29
2018-06-04T00:44:25.527Z,101692.41
2018-06-04T00:46:59.715Z,101683.78
2018-06-04T00:49:32.102Z,101688.34
2018-06-04T00:52:02.414Z,101688.16
2018-06-04T00:54:37.036Z,101690.06
2018-06-04T00:57:09.352Z,101686.73
2018-06-04T00:59:42.910Z,101695.59
2018-06-04T01:02:14.302Z,101699.73
2018-06-04T01:04:45.895Z,101704.12
2018-06-04T01:07:19.121Z,101701.22
2018-06-04T01:09:50.906Z,101702.37
2018-06-04T01:12:24.974Z,101704.86
2018-06-04T01:14:58.173Z,101703.29
2018-06-04T01:17:31.889Z,101707.73
2018-06-04T01:20:04.851Z,101704.39
2018-06-04T01:22:36.961Z,101701.88
2018-06-04T01:25:10.107Z,101701.81
2018-06-04T01:27:43.483Z,101703.27
2018-06-04T01:30:19.293Z,101697.86
2018-06-04T01:32:52.225Z,101698.68
2018-06-04T01:35:25.032Z,101692.36
2018-06-04T01:37:56.618Z,101699.44
2018-06-04T01:40:28.348Z,101688.59
2018-06-04T01:43:01.684Z,101695.95
2018-06-04T01:45:33.506Z,101689.08
2018-06-04T01:48:04.029Z,101687.01
2018-06-04T01:50:36.180Z,101686.16
2018-06-04T01:53:07.881Z,101679.20
2018-06-04T01:55:39.572Z,101675.98
2018-06-04T01:58:12.837Z,101682.66
2018-06-04T02:00:42.998Z,101685.34
2018-06-04T02:03:16.219Z,101680.55
2018-06-04T02:05:48.015Z,101678.75
2018-06-04T02:08:19.784Z,101669.11
2018-06-04T02:10:49.801Z,101675.28
2018-06-04T02:13:23.026Z,101669.62
2018-06-04T02:15:54.606Z,101674.19
2018-06-04T02:18:27.805Z,101671.20
2018-06-04T02:21:02.493Z,101667.50
2018-06-04T02:23:34.137Z,101671.21
2018-06-04T02:26:08.772Z,101664.34
2018-06-04T02:28:40.228Z,101655.98
2018-06-04T02:31:13.500Z,101660.24
2018-06-04T02:33:45.065Z,101658.23
2018-06-04T02:36:16.712Z,101655.23
2018-06-04T02:38:50.131Z,101659.18
2018-06-04T02:41:24.376Z,101659.69
2018-06-04T02:43:54.388Z,101659.00
2018-06-04T02:46:28.814Z,101657.14
2018-06-04T02:49:00.420Z,101655.23
2018-06-04T02:51:32.474Z,101655.14
2018-06-04T02:54:03.324Z,101652.64
2018-06-04T02:56:36.432Z,101652.22
2018-06-04T02:59:07.212Z,101653.01
2018-06-04T03:01:37.876Z,101652.12
2018-06-04T03:04:08.189Z,101654.47
2018-06-04T03:06:39.573Z,101653.73
2018-06-04T03:09:12.002Z,101649.97
2018-06-04T03:11:46.861Z,101660.82
2018-06-04T03:14:21.207Z,101654.56
2018-06-04T03:16:54.740Z,101657.75
2018-06-04T03:19:29.251Z,101652.25
2018-06-04T03:22:02.591Z,101660.24
2018-06-04T03:24:34.564Z,101652.25
2018-06-04T03:27:08.249Z,101653.67
2018-06-04T03:29:41.402Z,101658.23
2018-06-04T03:32:14.571Z,101652.23
2018-06-04T03:34:47.244Z,101650.80
2018-06-04T03:37:20.422Z,101648.03
2018-06-04T03:39:52.179Z,101650.30
2018-06-04T03:42:27.098Z,101654.00
2018-06-04T03:45:01.636Z,101649.78
2018-06-04T03:47:35.125Z,101641.27
2018-06-04T03:50:06.898Z,101647.64
2018-06-04T03:52:38.720Z,101637.41
2018-06-04T03:55:11.729Z,101641.25
2018-06-04T03:57:44.929Z,101639.60
2018-06-04T04:00:17.943Z,101642.16
2018-06-04T04:02:49.610Z,101636.09
2018-06-04T04:05:22.765Z,101641.42
2018-06-04T04:07:54.510Z,101634.52
2018-06-04T04:10:26.132Z,101640.41
2018-06-04T04:12:57.791Z,101640.68
2018-06-04T04:15:29.325Z,101640.43
2018-06-04T04:17:59.683Z,101632.23
2018-06-04T04:20:30.482Z,101638.16
2018-06-04T04:23:02.512Z,101636.89
2018-06-04T04:25:35.507Z,101635.17
2018-06-04T04:28:07.147Z,101639.70
2018-06-04T04:30:40.260Z,101636.47
2018-06-04T04:33:12.291Z,101638.48
2018-06-04T04:35:47.008Z,101640.02
2018-06-04T04:38:20.801Z,101644.34
2018-06-04T04:40:52.690Z,101640.14
2018-06-04T04:43:27.115Z,101637.16
2018-06-04T04:46:01.724Z,101635.89
2018-06-04T04:48:35.384Z,101639.35
2018-06-04T04:51:09.874Z,101640.73
2018-06-04T04:53:41.642Z,101640.13
2018-06-04T04:56:13.871Z,101641.23
2018-06-04T04:58:47.294Z,101647.41
2018-06-04T05:01:19.032Z,101639.83
2018-06-04T05:03:50.615Z,101638.80
2018-06-04T05:06:23.974Z,101635.48
2018-06-04T05:08:58.569Z,101635.42
2018-06-04T05:11:32.108Z,101638.23
2018-06-04T05:14:03.531Z,101637.55
2018-06-04T05:16:36.531Z,101641.30
2018-06-04T05:19:08.562Z,101636.34
2018-06-04T05:21:41.619Z,101644.51
2018-06-04T05:24:13.322Z,101639.11
2018-06-04T05:26:44.820Z,101637.81
2018-06-04T05:29:16.795Z,101636.55
2018-06-04T05:31:50.030Z,101640.89
2018-06-04T05:34:24.763Z,101641.48
2018-06-04T05:36:56.355Z,101643.02
2018-06-04T05:39:29.684Z,101638.66
2018-06-04T05:42:02.726Z,101642.06
2018-06-04T05:44:32.746Z,101645.79
2018-06-04T05:47:04.430Z,101644.32
2018-06-04T05:49:36.312Z,101640.17
2018-06-04T05:52:09.436Z,101639.00
2018-06-04T05:54:41.096Z,101637.76
2018-06-04T05:57:14.953Z,101642.69
2018-06-04T05:59:44.835Z,101635.77
2018-06-04T06:02:17.316Z,101635.47
2018-06-04T06:04:49.166Z,101627.34
2018-06-04T06:07:24.109Z,101631.48
2018-06-04T06:09:56.018Z,101629.69
2018-06-04T06:12:29.468Z,101626.39
2018-06-04T06:15:03.069Z,101619.78
2018-06-04T06:17:37.847Z,101616.41
2018-06-04T06:20:11.572Z,101613.78
2018-06-04T06:22:44.802Z,101604.25
2018-06-04T06:25:19.661Z,101606.39
2018-06-04T06:27:52.729Z,101611.80
2018-06-04T06:30:26.216Z,101611.20
2018-06-04T06:32:56.924Z,101610.05
2018-06-04T06:35:29.228Z,101608.60
2018-06-04T06:38:00.906Z,101609.55
2018-06-04T06:40:35.741Z,101610.44
2018-06-04T06:43:08.802Z,101608.19
2018-06-04T06:45:41.854Z,101609.31
2018-06-04T06:48:15.635Z,101618.28
2018-06-04T06:50:50.129Z,101621.62
2018-06-04T06:53:21.845Z,101614.47
2018-06-04T06:55:53.494Z,101619.54
2018-06-04T06:58:26.523Z,101619.52
2018-06-04T07:00:58.483Z,101613.37
2018-06-04T07:03:33.251Z,101616.91
2018-06-04T07:06:06.131Z,101617.50
2018-06-04T07:08:39.541Z,101611.40
2018-06-04T07:11:12.871Z,101612.98
2018-06-04T07:13:42.888Z,101618.56
2018-06-04T07:16:16.445Z,101615.73
2018-06-04T07:18:49.422Z,101614.11
2018-06-04T07:21:19.427Z,101622.39
2018-06-04T07:23:50.919Z,101624.31
2018-06-04T07:26:23.889Z,101625.88
2018-06-04T07:28:56.916Z,101635.28
2018-06-04T07:31:28.568Z,101625.48
2018-06-04T07:34:01.826Z,101631.95
2018-06-04T07:36:34.996Z,101627.33
2018-06-04T07:39:11.081Z,101623.59
2018-06-04T07:41:44.275Z,101623.64
2018-06-04T07:44:19.045Z,101631.55
2018-06-04T07:46:50.692Z,101627.06
2018-06-04T07:49:22.288Z,101629.08
2018-06-04T07:51:54.918Z,101630.63
2018-06-04T07:54:28.101Z,101634.59
2018-06-04T07:57:00.078Z,101630.28
2018-06-04T07:59:32.948Z,101631.36
2018-06-04T08:02:05.670Z,101625.84
2018-06-04T08:04:38.614Z,101632.91
2018-06-04T08:07:11.788Z,101630.09
2018-06-04T08:09:43.448Z,101630.81
2018-06-04T08:12:13.300Z,101633.87
2018-06-04T08:14:46.143Z,101634.44
2018-06-04T08:17:17.762Z,101625.63
2018-06-04T08:19:52.280Z,101624.23
2018-06-04T08:22:23.890Z,101626.05
2018-06-04T08:24:54.476Z,101628.91
2018-06-04T08:27:25.884Z,101626.77
2018-06-04T08:29:57.509Z,101628.72
2018-06-04T08:32:30.550Z,101623.55
2018-06-04T08:35:03.930Z,101624.09
2018-06-04T08:37:35.407Z,101625.67
2018-06-04T08:40:09.091Z,101625.66
2018-06-04T08:42:40.753Z,101626.75
2018-06-04T08:45:15.414Z,101626.20
2018-06-04T08:47:49.969Z,101627.27
2018-06-04T08:50:20.063Z,101625.95
2018-06-04T08:52:52.437Z,101632.05
2018-06-04T08:55:24.397Z,101622.08
2018-06-04T08:57:56.493Z,101620.58
2018-06-04T09:00:28.405Z,101626.89
2018-06-04T09:03:03.180Z,101626.48
2018-06-04T09:05:35.558Z,101624.42
2018-06-04T09:08:07.084Z,101624.36
2018-06-04T09:10:42.039Z,101628.56
2018-06-04T09:13:13.925Z,101625.34
2018-06-04T09:15:46.039Z,101627.95
2018-06-04T09:18:19.287Z,101634.02
2018-06-04T09:20:49.251Z,101633.70
2018-06-04T09:23:23.061Z,101624.97
2018-06-04T09:25:56.703Z,101630.84
2018-06-04T09:28:29.014Z,101624.54
2018-06-04T09:31:00.504Z,101628.02
2018-06-04T09:33:32.612Z,101632.09
2018-06-04T09:36:02.577Z,101629.55
2018-06-04T09:38:34.224Z,101624.55
2018-06-04T09:41:07.165Z,101632.92
2018-06-04T09:43:40.228Z,101628.52
2018-06-04T09:46:10.209Z,101621.29
2018-06-04T09:48:42.103Z,101627.66
2018-06-04T09:51:13.612Z,101621.55
2018-06-04T09:53:45.505Z,101626.59
2018-06-04T09:56:16.141Z,101629.16
2018-06-04T09:58:47.910Z,101620.45
2018-06-04T10:01:22.477Z,101619.14
2018-06-04T10:03:54.053Z,101621.79
2018-06-04T10:06:27.063Z,101626.59
2018-06-04T10:08:56.966Z,101625.56
2018-06-04T10:11:28.396Z,101625.52
2018-06-04T10:14:00.052Z,101620.98
2018-06-04T10:16:31.610Z,101615.80
2018-06-04T10:19:04.908Z,101615.30
2018-06-04T10:21:38.052Z,101613.34
2018-06-04T10:24:10.074Z,101620.94
2018-06-04T10:26:43.380Z,101617.61
2018-06-04T10:29:16.669Z,101618.39
2018-06-04T10:31:49.624Z,101619.22
2018-06-04T10:34:23.643Z,101620.75
2018-06-04T10:36:56.471Z,101612.98
2018-06-04T10:39:29.650Z,101613.53
2018-06-04T10:42:02.817Z,101613.06
2018-06-04T10:44:37.149Z,101624.60
2018-06-04T10:47:10.074Z,101616.05
2018-06-04T10:49:41.778Z,101624.17
2018-06-04T10:52:12.602Z,101622.86
2018-06-04T10:54:44.657Z,101620.55
2018-06-04T10:57:19.493Z,101620.79
2018-06-04T10:59:53.940Z,101608.16
2018-06-04T11:02:27.868Z,101613.11
2018-06-04T11:05:03.249Z,101612.69
2018-06-04T11:07:37.881Z,101612.72
2018-06-04T11:10:09.579Z,101606.80
2018-06-04T11:12:43.935Z,101601.36
2018-06-04T11:15:16.699Z,101600.20
2018-06-04T11:17:50.443Z,101595.35
2018-06-04T11:20:20.523Z,101593.96
2018-06-04T11:22:53.306Z,101594.97
2018-06-04T11:25:26.848Z,101596.48
2018-06-04T11:27:58.738Z,101606.28
2018-06-04T11:30:31.878Z,101606.16
2018-06-04T11:33:06.384Z,101609.40
2018-06-04T11:35:36.347Z,101597.36
2018-06-04T11:38:09.274Z,101592.97
2018-06-04T11:40:42.495Z,101593.36
2018-06-04T11:43:15.411Z,101592.68
2018-06-04T11:45:47.358Z,101595.23
2018-06-04T11:48:17.373Z,101592.11
2018-06-04T11:50:49.249Z,101587.27
2018-06-04T11:53:22.308Z,101582.28
2018-06-04T11:55:54.903Z,101575.51
2018-06-04T11:58:26.559Z,101578.66
2018-06-04T12:00:57.949Z,101581.05
2018-06-04T12:03:32.327Z,101581.23
2018-06-04T12:06:02.238Z,101582.23
2018-06-04T12:08:33.712Z,101576.88
2018-06-04T12:11:05.246Z,101577.62
2018-06-04T12:13:39.617Z,101570.56
2018-06-04T12:16:11.371Z,101570.17
2018-06-04T12:18:42.783Z,101573.39
2018-06-04T12:21:15.288Z,101568.17
2018-06-04T12:23:48.716Z,101566.08
2018-06-04T12:26:23.179Z,101568.27
2018-06-04T12:28:57.571Z,101566.50
2018-06-04T12:31:29.514Z,101570.66
2018-06-04T12:34:03.772Z,101560.85
2018-06-04T12:36:37.979Z,101562.91
2018-06-04T12:39:11.915Z,101557.71
2018-06-04T12:41:46.412Z,101559.55
2018-06-04T12:44:19.328Z,101556.97
2018-06-04T12:46:52.090Z,101566.48
2018-06-04T12:49:23.555Z,101558.81
2018-06-04T12:51:57.929Z,101563.02
2018-06-04T12:54:29.643Z,101560.52
2018-06-04T12:57:02.559Z,101555.05
2018-06-04T12:59:33.960Z,101551.59
2018-06-04T13:02:05.046Z,101553.14
2018-06-04T13:04:37.937Z,101541.38
2018-06-04T13:07:11.140Z,101538.13
2018-06-04T13:09:44.011Z,101538.61
2018-06-04T13:12:17.035Z,101532.98
2018-06-04T13:14:48.497Z,101529.96
2018-06-04T13:17:21.035Z,101539.21
2018-06-04T13:19:50.946Z,101526.02
2018-06-04T13:22:22.496Z,101524.41
2018-06-04T13:24:53.989Z,101530.47
2018-06-04T13:27:25.427Z,101521.47
2018-06-04T13:29:58.358Z,101514.77
2018-06-04T13:32:33.019Z,101504.85
2018-06-04T13:35:05.841Z,101510.39
2018-06-04T13:37:38.073Z,101505.66
2018-06-04T13:40:10.836Z,101510.77
2018-06-04T13:42:43.753Z,101504.98
2018-06-04T13:45:18.068Z,101501.64
2018-06-04T13:47:47.909Z,101504.39
2018-06-04T13:50:19.790Z,101496.10
2018-06-04T13:52:52.552Z,101494.27
2018-06-04T13:55:23.904Z,101487.60
2018-06-04T13:57:57.094Z,101488.73
2018-06-04T14:00:27.008Z,101486.94
2018-06-04T14:02:56.894Z,101498.88
2018-06-04T14:05:30.188Z,101498.88
2018-06-04T14:08:00.012Z,101491.25
2018-06-04T14:10:29.908Z,101493.84
2018-06-04T14:13:00.726Z,101483.65
2018-06-04T14:15:33.754Z,101482.44
2018-06-04T14:18:06.632Z,101482.67
2018-06-04T14:20:36.539Z,101475.78
2018-06-04T14:23:07.892Z,101471.28
2018-06-04T14:25:42.344Z,101479.50
2018-06-04T14:28:12.874Z,101480.53
2018-06-04T14:30:43.259Z,101469.88
2018-06-04T14:33:16.495Z,101471.09
2018-06-04T14:35:49.455Z,101468.28
2018-06-04T14:38:20.887Z,101462.17
2018-06-04T14:40:50.808Z,101465.52
2018-06-04T14:43:22.093Z,101456.12
2018-06-04T14:45:55.441Z,101470.17
2018-06-04T14:48:29.822Z,101464.80
2018-06-04T14:51:01.214Z,101470.66
2018-06-04T14:53:33.258Z,101460.75
2018-06-04T14:56:03.303Z,101465.77
2018-06-04T14:58:36.474Z,101468.48
2018-06-04T15:01:08.870Z,101464.63
2018-06-04T15:03:39.502Z,101468.45
2018-06-04T15:06:12.326Z,101467.42
2018-06-04T15:08:45.302Z,101455.41
2018-06-04T15:11:19.604Z,101462.94
2018-06-04T15:13:51.537Z,101457.91
2018-06-04T15:16:24.406Z,101453.63
2018-06-04T15:18:57.430Z,101453.37
2018-06-04T15:21:28.935Z,101452.62
2018-06-04T15:24:02.182Z,101452.45
2018-06-04T15:26:33.501Z,101446.27
2018-06-04T15:29:06.503Z,101450.89
2018-06-04T15:31:37.872Z,101449.53
2018-06-04T15:34:11.818Z,101440.09
2018-06-04T15:36:42.289Z,101431.86
2018-06-04T15:39:15.296Z,101441.81
2018-06-04T15:41:48.552Z,101443.20
2018-06-04T15:44:20.506Z,101434.14
2018-06-04T15:46:50.397Z,101436.23
2018-06-04T15:49:23.187Z,101430.23
2018-06-04T15:51:55.195Z,101434.33
2018-06-04T15:54:28.187Z,101427.30
2018-06-04T15:57:01.176Z,101433.20
2018-06-04T15:59:34.151Z,101427.15
2018-06-04T16:02:09.511Z,101423.98
2018-06-04T16:04:43.814Z,101423.48
2018-06-04T16:07:15.472Z,101422.52
2018-06-04T16:09:46.930Z,101412.88
2018-06-04T16:12:21.739Z,101415.92
2018-06-04T16:14:53.734Z,101413.80
2018-06-04T16:17:26.321Z,101415.45
2018-06-04T16:19:58.344Z,101409.36
2018-06-04T16:22:29.222Z,101402.83
2018-06-04T16:25:00.785Z,101409.93
2018-06-04T16:27:31.162Z,101403.70
2018-06-04T16:30:04.067Z,101394.83
2018-06-04T16:32:33.194Z,101397.67
2018-06-04T16:35:06.684Z,101395.78
2018-06-04T16:37:38.609Z,101404.28
2018-06-04T16:40:11.523Z,101390.05
2018-06-04T16:42:44.423Z,101398.73
2018-06-04T16:45:16.132Z,101389.88
2018-06-04T16:47:47.579Z,101380.36
2018-06-04T16:50:20.532Z,101386.45
2018-06-04T16:52:50.613Z,101389.07
2018-06-04T16:55:23.423Z,101388.20
2018-06-04T16:57:54.774Z,101389.77
2018-06-04T17:00:27.813Z,101387.75
2018-06-04T17:03:00.653Z,101386.60
2018-06-04T17:05:32.377Z,101393.89
2018-06-04T17:08:03.736Z,101400.17
2018-06-04T17:10:35.305Z,101396.34
2018-06-04T17:13:06.377Z,101392.44
2018-06-04T17:15:39.252Z,101392.84
2018-06-04T17:18:11.628Z,101399.47
2018-06-04T17:20:44.543Z,101396.34
2018-06-04T17:23:16.085Z,101395.84
2018-06-04T17:25:48.247Z,101392.18
2018-06-04T17:28:22.284Z,101391.47
2018-06-04T17:30:55.209Z,101396.22
2018-06-04T17:33:26.744Z,101400.17
2018-06-04T17:35:58.152Z,101396.09
2018-06-04T17:38:31.405Z,101400.50
2018-06-04T17:41:02.737Z,101396.57
2018-06-04T17:43:34.047Z,101388.48
2018-06-04T17:46:07.158Z,101392.80
2018-06-04T17:48:37.045Z,101398.23
2018-06-04T17:51:10.083Z,101394.64
2018-06-04T17:53:42.436Z,101395.27
2018-06-04T17:56:12.431Z,101393.41
2018-06-04T17:58:46.746Z,101396.49
2018-06-04T18:01:19.719Z,101398.53
2018-06-04T18:03:49.310Z,101403.52
2018-06-04T18:06:21.634Z,101401.89
2018-06-04T18:08:54.632Z,101400.77
2018-06-04T18:11:26.855Z,101398.33
2018-06-04T18:13:58.424Z,101405.48
2018-06-04T18:16:30.070Z,101404.48
2018-06-04T18:19:01.813Z,101407.27
2018-06-04T18:21:32.414Z,101409.27
2018-06-04T18:24:03.902Z,101406.42
2018-06-04T18:26:36.962Z,101405.53
2018-06-04T18:29:11.403Z,101409.73
2018-06-04T18:31:42.973Z,101407.98
2018-06-04T18:34:14.971Z,101407.38
2018-06-04T18:36:48.191Z,101412.09
2018-06-04T18:39:20.268Z,101403.86
2018-06-04T18:41:51.718Z,101416.28
2018-06-04T18:44:23.405Z,101424.28
2018-06-04T18:46:55.045Z,101421.28
2018-06-04T18:49:28.351Z,101424.88
2018-06-04T18:52:00.110Z,101426.03
2018-06-04T18:54:34.932Z,101431.92
2018-06-04T18:57:08.701Z,101432.57
2018-06-04T18:59:40.940Z,101433.41
2018-06-04T19:02:14.019Z,101434.94
2018-06-04T19:04:46.148Z,101445.84
2018-06-04T19:07:20.986Z,101444.94
2018-06-04T19:09:52.818Z,101445.56
2018-06-04T19:12:23.090Z,101451.38
2018-06-04T19:14:56.204Z,101452.29
2018-06-04T19:17:27.118Z,101454.58
2018-06-04T19:19:58.637Z,101450.40
2018-06-04T19:22:28.683Z,101454.91
2018-06-04T19:25:03.509Z,101454.55
2018-06-04T19:27:36.597Z,101456.53
2018-06-04T19:30:10.890Z,101455.39
2018-06-04T19:32:42.300Z,101466.06
2018-06-04T19:35:12.359Z,101468.41
2018-06-04T19:37:45.588Z,101462.08
2018-06-04T19:40:17.518Z,101466.94
2018-06-04T19:42:50.538Z,101466.32
2018-06-04T19:45:23.492Z,101472.67
2018-06-04T19:47:53.416Z,101482.95
2018-06-04T19:50:26.331Z,101486.77
2018-06-04T19:52:57.943Z,101492.18
2018-06-04T19:55:29.861Z,101492.84
2018-06-04T19:58:01.593Z,101492.80
2018-06-04T20:00:36.501Z,101494.66
2018-06-04T20:03:07.951Z,101502.98
2018-06-04T20:05:41.091Z,101500.24
2018-06-04T20:08:11.173Z,101509.09
2018-06-04T20:10:45.457Z,101504.42
2018-06-04T20:13:19.899Z,101510.73
2018-06-04T20:15:54.477Z,101516.14
2018-06-04T20:18:26.506Z,101523.43
2018-06-04T20:21:01.417Z,101510.70
2018-06-04T20:23:32.901Z,101515.15
2018-06-04T20:26:05.910Z,101512.66
2018-06-04T20:28:38.887Z,101519.98
2018-06-04T20:31:13.602Z,101519.03
2018-06-04T20:33:46.865Z,101519.09
2018-06-04T20:36:18.437Z,101524.88
2018-06-04T20:38:51.679Z,101521.91
2018-06-04T20:41:24.904Z,101530.71
2018-06-04T20:43:59.828Z,101532.28
2018-06-04T20:46:34.267Z,101527.11
2018-06-04T20:49:06.018Z,101525.66
2018-06-04T20:51:36.018Z,101529.58
2018-06-04T20:54:07.555Z,101529.00
2018-06-04T20:56:39.364Z,101538.50
2018-06-04T20:59:11.038Z,101541.60
2018-06-04T21:01:44.299Z,101548.70
2018-06-04T21:04:16.039Z,101552.14
2018-06-04T21:06:48.981Z,101554.63
2018-06-04T21:09:22.246Z,101549.62
2018-06-04T21:11:53.751Z,101552.29
2018-06-04T21:14:25.536Z,101551.71
2018-06-04T21:16:57.190Z,101557.30
2018-06-04T21:19:30.304Z,101553.05
2018-06-04T21:22:02.081Z,101555.41
2018-06-04T21:24:32.096Z,101553.56
2018-06-04T21:27:06.698Z,101554.63
2018-06-04T21:29:38.443Z,101555.56
2018-06-04T21:32:11.502Z,101552.29
2018-06-04T21:34:41.536Z,101554.75
2018-06-04T21:37:13.643Z,101548.98
2018-06-04T21:39:45.358Z,101556.88
2018-06-04T21:42:18.528Z,101558.33
2018-06-04T21:44:50.540Z,101560.34
2018-06-04T21:47:22.182Z,101561.67
2018-06-04T21:49:55.396Z,101563.49
2018-06-04T21:52:28.568Z,101566.68
2018-06-04T21:55:01.504Z,101557.97
2018-06-04T21:57:33.112Z,101561.06
2018-06-04T22:00:03.967Z,101561.43
2018-06-04T22:02:37.066Z,101561.16
2018-06-04T22:05:10.053Z,101567.50
2018-06-04T22:07:43.736Z,101565.77
2018-06-04T22:10:18.371Z,101563.76
2018-06-04T22:12:51.034Z,101573.94
2018-06-04T22:15:24.352Z,101571.84
2018-06-04T22:17:58.748Z,101579.13
2018-06-04T22:20:31.706Z,101566.88
2018-06-04T22:23:05.179Z,101567.22
2018-06-04T22:25:38.405Z,101569.67
2018-06-04T22:28:11.769Z,101568.43
2018-06-04T22:30:44.773Z,101569.91
2018-06-04T22:33:19.555Z,101565.14
2018-06-04T22:35:54.176Z,101570.16
2018-06-04T22:38:27.145Z,101577.23
2018-06-04T22:41:01.972Z,101574.59
2018-06-04T22:43:34.426Z,101584.80
2018-06-04T22:46:07.945Z,101587.70
2018-06-04T22:48:42.601Z,101588.80
2018-06-04T22:51:15.567Z,101582.77
2018-06-04T22:53:47.107Z,101574.75
2018-06-04T22:56:21.047Z,101578.00
2018-06-04T22:58:52.652Z,101575.56
2018-06-04T23:01:24.216Z,101565.30
2018-06-04T23:03:56.988Z,101566.09
2018-06-04T23:06:30.246Z,101564.81
2018-06-04T23:09:01.912Z,101565.39
2018-06-04T23:11:32.840Z,101567.08
2018-06-04T23:14:07.395Z,101566.52
2018-06-04T23:16:37.440Z,101571.91
2018-06-04T23:19:09.981Z,101563.20
2018-06-04T23:21:43.239Z,101563.64
2018-06-04T23:24:15.554Z,101559.64
2018-06-04T23:26:48.963Z,101562.88
2018-06-04T23:29:21.425Z,101551.20
2018-06-04T23:31:54.573Z,101549.43
2018-06-04T23:34:24.663Z,101556.20
2018-06-04T23:36:57.908Z,101558.00
2018-06-04T23:39:31.550Z,101564.59
2018-06-04T23:42:03.524Z,101562.02
2018-06-04T23:44:38.052Z,101567.17
2018-06-04T23:47:09.791Z,101554.89
2018-06-04T23:49:41.344Z,101557.97
2018-06-04T23:52:14.578Z,101557.80
2018-06-04T23:54:46.176Z,101555.13
2018-06-04T23:57:16.148Z,101549.88
2018-06-04T23:59:50.862Z,101552.13
